Time;durP1;ratioP1;P1;durP2;ratioP2;P2;SDS_P1;SDS_P2;PMS_P1;PMS_P2;Temp;Humidity;BMP_temperature;BMP_pressure;BME280_temperature;BME280_humidity;BME280_pressure;Samples;Min_cycle;Max_cycle;Signal;HPM_P1;HPM_P2
2022/06/16 00:00:33;;;;;;;6.07;2.95;;;;;;;18.14;62.64;101839.22;5017499;28;20030;-47
2022/06/16 00:02:58;;;;;;;7.72;2.88;;;;;;;18.07;61.75;101841.88;5019650;28;20365;-52
2022/06/16 00:05:30;;;;;;;7.88;3.10;;;;;;;18.05;61.74;101843.88;5007740;28;20025;-52
2022/06/16 00:07:55;;;;;;;6.63;3.10;;;;;;;18.05;62.10;101854.69;4999114;28;20021;-51
2022/06/16 00:10:21;;;;;;;7.85;3.20;;;;;;;18.01;62.02;101845.31;5017529;28;20430;-48
2022/06/16 00:12:47;;;;;;;7.22;3.30;;;;;;;17.95;61.77;101850.59;5017136;28;20029;-51
2022/06/16 00:15:16;;;;;;;6.47;3.03;;;;;;;17.91;61.65;101843.91;5018297;28;20672;-50
2022/06/16 00:17:42;;;;;;;4.72;2.80;;;;;;;17.83;61.29;101842.09;5015590;28;20298;-49
2022/06/16 00:20:08;;;;;;;8.35;3.20;;;;;;;17.79;61.90;101848.88;5008012;28;20109;-51
2022/06/16 00:22:35;;;;;;;7.00;3.25;;;;;;;17.74;61.98;101848.59;5009114;28;20468;-50
2022/06/16 00:25:00;;;;;;;5.20;3.20;;;;;;;17.72;62.44;101848.78;5020561;28;20164;-51
2022/06/16 00:27:26;;;;;;;7.65;3.03;;;;;;;17.67;62.48;101848.50;5010319;28;20480;-51
2022/06/16 00:29:51;;;;;;;10.68;3.63;;;;;;;17.67;62.52;101856.59;5017312;28;20049;-50
2022/06/16 00:32:17;;;;;;;5.70;3.03;;;;;;;17.64;61.75;101856.97;5016530;28;20025;-51
2022/06/16 00:34:43;;;;;;;8.68;3.67;;;;;;;17.65;61.85;101858.63;5012044;28;20033;-50
2022/06/16 00:37:08;;;;;;;8.52;3.30;;;;;;;17.61;61.90;101860.84;5004913;28;20055;-49
2022/06/16 00:39:33;;;;;;;9.18;3.30;;;;;;;17.61;62.29;101857.31;5011847;28;20320;-49
2022/06/16 00:42:16;;;;;;;9.07;3.22;;;;;;;17.59;62.26;101854.81;5014858;28;20025;-51
2022/06/16 00:44:44;;;;;;;5.15;3.20;;;;;;;17.46;62.77;101859.97;5015765;28;20473;-51
2022/06/16 00:47:09;;;;;;;9.20;3.10;;;;;;;17.46;63.10;101860.81;5008836;28;20048;-48
2022/06/16 00:49:38;;;;;;;9.70;3.10;;;;;;;17.38;63.05;101862.75;5000422;28;20112;-48
2022/06/16 00:52:10;;;;;;;8.32;3.50;;;;;;;17.38;62.90;101868.16;5011948;28;20446;-51
2022/06/16 00:54:47;;;;;;;9.85;3.42;;;;;;;17.37;62.87;101861.91;5002722;28;20075;-49
2022/06/16 00:57:17;;;;;;;8.07;3.05;;;;;;;17.29;62.55;101856.56;5010739;28;20021;-48
2022/06/16 00:59:43;;;;;;;11.20;3.33;;;;;;;17.27;63.34;101862.16;5005439;28;20022;-49
2022/06/16 01:02:10;;;;;;;5.32;3.10;;;;;;;17.25;64.27;101857.97;5003109;28;20130;-47
2022/06/16 01:04:51;;;;;;;8.27;3.20;;;;;;;17.22;64.58;101863.72;5009855;28;20026;-50
2022/06/16 01:07:28;;;;;;;6.47;3.45;;;;;;;17.16;63.94;101870.69;5012719;28;20037;-51
2022/06/16 01:09:55;;;;;;;7.18;3.45;;;;;;;17.06;64.23;101868.22;5017270;28;20017;-51
2022/06/16 01:15:25;;;;;;;7.47;3.08;;;;;;;16.96;65.06;101873.84;5008667;28;20055;-49
2022/06/16 01:17:58;;;;;;;7.75;3.40;;;;;;;16.96;65.88;101873.00;5008449;28;20047;-51
2022/06/16 01:21:03;;;;;;;8.45;3.60;;;;;;;16.88;65.11;101881.16;5004197;28;20040;-52
2022/06/16 01:23:59;;;;;;;9.77;3.30;;;;;;;16.84;65.34;101885.19;5009881;28;20017;-52
2022/06/16 01:26:37;;;;;;;7.95;3.50;;;;;;;16.77;66.07;101885.91;5005484;28;20040;-53
2022/06/16 01:29:33;;;;;;;6.30;3.65;;;;;;;16.72;65.97;101885.59;5012156;28;20298;-52
2022/06/16 01:32:17;;;;;;;7.68;3.97;;;;;;;16.65;66.55;101890.00;5010798;28;20032;-52
2022/06/16 01:35:06;;;;;;;8.07;3.85;;;;;;;16.51;66.66;101894.25;5010532;28;20026;-52
2022/06/16 01:37:53;;;;;;;9.32;3.97;;;;;;;16.52;66.16;101901.34;5008460;28;20116;-52
2022/06/16 01:40:22;;;;;;;7.93;3.88;;;;;;;16.46;68.71;101906.59;5009260;28;20021;-51
2022/06/16 01:43:00;;;;;;;8.23;4.13;;;;;;;16.37;68.11;101905.78;5009118;28;20104;-52
2022/06/16 01:45:31;;;;;;;7.68;3.80;;;;;;;16.25;68.88;101902.63;5010253;28;20782;-48
2022/06/16 01:47:57;;;;;;;7.40;4.00;;;;;;;16.27;69.04;101894.34;5008631;28;20025;-51
2022/06/16 01:50:31;;;;;;;7.63;4.32;;;;;;;16.21;68.90;101901.28;5008403;28;20029;-51
2022/06/16 01:53:24;;;;;;;7.10;4.07;;;;;;;16.24;67.92;101898.22;5007429;28;20046;-47
2022/06/16 01:56:00;;;;;;;6.07;4.05;;;;;;;16.14;69.28;101894.88;5000052;28;20033;-48
2022/06/16 01:58:31;;;;;;;6.28;3.95;;;;;;;16.13;71.02;101890.53;5010640;28;20033;-50
2022/06/16 02:01:01;;;;;;;13.38;4.32;;;;;;;16.14;70.13;101890.34;5008999;28;20075;-48
2022/06/16 02:03:35;;;;;;;9.35;4.75;;;;;;;16.11;70.62;101889.88;5009516;28;20064;-48
2022/06/16 02:06:21;;;;;;;7.97;4.45;;;;;;;16.07;69.86;101885.81;5011326;28;20490;-50
2022/06/16 02:08:50;;;;;;;12.68;4.40;;;;;;;16.02;70.90;101887.19;5013102;28;20056;-52
2022/06/16 02:11:26;;;;;;;12.63;4.40;;;;;;;15.97;70.10;101877.91;5010517;28;20024;-52
2022/06/16 02:13:57;;;;;;;9.65;4.30;;;;;;;15.88;70.78;101890.56;5014934;28;20033;-50
2022/06/16 02:16:34;;;;;;;8.00;4.28;;;;;;;15.77;71.16;101896.31;5006510;28;20166;-51
2022/06/16 02:19:04;;;;;;;6.63;4.25;;;;;;;15.61;72.97;101897.97;5008019;28;20022;-49
2022/06/16 02:21:36;;;;;;;8.45;4.22;;;;;;;15.58;73.00;101901.00;5019438;28;20029;-50
2022/06/16 02:24:07;;;;;;;10.32;4.50;;;;;;;15.53;72.54;101889.91;5017224;28;20112;-48
2022/06/16 02:26:34;;;;;;;7.03;4.25;;;;;;;15.58;74.26;101901.00;5005257;28;20018;-50
2022/06/16 02:29:03;;;;;;;9.43;4.38;;;;;;;15.51;74.39;101899.97;5016535;28;20113;-49
2022/06/16 02:31:47;;;;;;;9.20;4.28;;;;;;;15.51;75.10;101905.34;5016388;28;20112;-47
2022/06/16 02:34:37;;;;;;;9.43;4.72;;;;;;;15.46;73.69;101922.03;5016311;28;20026;-47
2022/06/16 02:37:08;;;;;;;8.52;4.78;;;;;;;15.39;75.05;101926.38;5013933;28;20060;-51
2022/06/16 02:40:11;;;;;;;8.88;4.50;;;;;;;15.33;74.17;101940.50;5010826;28;20445;-49
2022/06/16 02:42:42;;;;;;;9.77;4.50;;;;;;;15.29;75.83;101939.13;5011416;28;20056;-51
2022/06/16 02:45:51;;;;;;;7.32;4.60;;;;;;;15.28;74.47;101930.22;5017418;28;20052;-51
2022/06/16 02:48:28;;;;;;;9.43;4.63;;;;;;;15.25;75.89;101937.81;5012396;28;20593;-51
2022/06/16 02:51:03;;;;;;;7.60;4.47;;;;;;;15.16;76.03;101941.50;5014136;28;20072;-48
2022/06/16 02:56:33;;;;;;;8.70;4.30;;;;;;;15.14;76.32;101957.81;5006729;28;20502;-50
2022/06/16 02:59:04;;;;;;;9.07;4.72;;;;;;;15.07;77.92;101954.91;5008876;28;20503;-47
2022/06/16 03:01:32;;;;;;;9.73;4.40;;;;;;;15.01;78.11;101949.34;5012179;28;20037;-50
2022/06/16 03:04:05;;;;;;;9.93;4.60;;;;;;;14.98;78.87;101955.06;5008811;28;20291;-49
2022/06/16 03:06:30;;;;;;;12.90;4.90;;;;;;;14.98;78.86;101963.13;5013762;28;20029;-51
2022/06/16 03:08:57;;;;;;;9.27;4.57;;;;;;;14.87;77.93;101954.34;5015899;28;20025;-48
2022/06/16 03:11:23;;;;;;;12.50;4.40;;;;;;;14.82;78.57;101937.84;5010205;28;20218;-50
2022/06/16 03:13:48;;;;;;;7.13;4.18;;;;;;;14.78;78.61;101944.53;5012245;28;20337;-49
2022/06/16 03:16:13;;;;;;;9.93;4.85;;;;;;;14.79;79.71;101953.47;5010623;28;20025;-48
2022/06/16 03:18:38;;;;;;;11.82;4.75;;;;;;;14.72;79.38;101945.19;5008603;28;20492;-51
2022/06/16 03:21:04;;;;;;;12.32;5.38;;;;;;;14.73;79.33;101941.50;5009413;28;20063;-49
2022/06/16 03:23:30;;;;;;;8.90;5.00;;;;;;;14.69;79.67;101937.47;5027117;28;20082;-46
2022/06/16 03:25:55;;;;;;;8.02;4.88;;;;;;;14.71;78.95;101938.13;5017160;28;20021;-48
2022/06/16 03:28:21;;;;;;;9.35;4.88;;;;;;;14.66;79.91;101943.16;5007355;28;20036;-51
2022/06/16 03:30:46;;;;;;;15.75;4.82;;;;;;;14.63;79.51;101947.03;5013720;28;20261;-50
2022/06/16 03:33:12;;;;;;;10.30;5.10;;;;;;;14.61;80.37;101948.16;5008785;28;20037;-47
2022/06/16 03:35:39;;;;;;;10.40;4.68;;;;;;;14.53;80.65;101951.66;5012066;28;20547;-51
2022/06/16 03:38:11;;;;;;;10.63;5.07;;;;;;;14.46;80.80;101967.56;5010977;28;20021;-48
2022/06/16 03:40:37;;;;;;;16.67;5.45;;;;;;;14.48;81.29;101972.78;5007338;28;20039;-48
2022/06/16 03:43:05;;;;;;;8.57;5.10;;;;;;;14.47;81.44;101973.78;5027729;28;20279;-47
2022/06/16 03:45:30;;;;;;;13.05;4.97;;;;;;;14.46;81.38;101982.81;5017927;28;20285;-48
2022/06/16 03:47:55;;;;;;;11.45;5.55;;;;;;;14.30;81.58;101986.25;5017299;28;20025;-49
2022/06/16 03:50:21;;;;;;;8.63;5.00;;;;;;;14.20;81.99;101990.91;5012151;28;20036;-50
2022/06/16 03:52:46;;;;;;;11.50;5.18;;;;;;;14.06;82.09;101995.00;5013957;28;20052;-49
2022/06/16 03:55:12;;;;;;;10.07;5.07;;;;;;;14.10;83.32;101993.66;5010208;28;20594;-46
2022/06/16 03:57:37;;;;;;;9.27;5.35;;;;;;;14.07;83.53;101989.47;5007380;28;20037;-46
2022/06/16 04:00:05;;;;;;;14.85;5.75;;;;;;;14.14;84.50;101997.75;5007671;28;20555;-46
2022/06/16 04:02:31;;;;;;;16.17;5.68;;;;;;;14.20;84.31;101999.78;5010983;28;20025;-50
2022/06/16 04:04:56;;;;;;;10.57;5.80;;;;;;;14.24;84.18;101990.44;5007635;28;20018;-48
2022/06/16 04:07:22;;;;;;;10.15;5.65;;;;;;;14.18;84.09;101991.88;5009579;28;20026;-50
2022/06/16 04:09:47;;;;;;;9.23;5.55;;;;;;;14.27;84.10;101994.63;5015019;28;20087;-50
2022/06/16 04:12:12;;;;;;;9.25;5.80;;;;;;;14.26;82.98;101992.97;5011283;28;20030;-52
2022/06/16 04:14:38;;;;;;;9.40;5.60;;;;;;;14.25;83.27;102004.69;5005955;28;20033;-47
2022/06/16 04:17:03;;;;;;;9.70;5.70;;;;;;;14.29;83.77;101998.88;5012770;28;20033;-49
2022/06/16 04:19:29;;;;;;;10.60;6.18;;;;;;;14.19;82.09;102000.81;5003624;28;20029;-49
2022/06/16 04:21:54;;;;;;;10.75;6.30;;;;;;;14.24;83.16;101987.75;5009174;28;20029;-47
2022/06/16 04:24:22;;;;;;;14.32;6.25;;;;;;;14.21;83.08;101998.81;5012377;28;20033;-48
2022/06/16 04:26:51;;;;;;;7.88;5.97;;;;;;;14.30;82.83;102000.53;5012738;28;20043;-49
2022/06/16 04:29:17;;;;;;;12.60;6.28;;;;;;;14.36;82.69;102010.66;5008004;28;20129;-50
2022/06/16 04:31:42;;;;;;;11.77;6.18;;;;;;;14.35;82.29;102008.97;5005882;28;20471;-50
2022/06/16 04:34:09;;;;;;;15.80;6.13;;;;;;;14.40;82.12;102016.56;5008144;28;20014;-47
2022/06/16 04:36:35;;;;;;;10.43;6.15;;;;;;;14.33;83.34;102013.66;5006594;28;20609;-48
2022/06/16 04:39:00;;;;;;;11.63;6.43;;;;;;;14.37;84.36;102019.56;5006498;28;20025;-48
2022/06/16 04:41:26;;;;;;;10.88;6.72;;;;;;;14.36;83.08;102021.41;5004785;28;20444;-48
2022/06/16 04:43:51;;;;;;;14.15;7.00;;;;;;;14.36;83.98;102021.41;5011093;28;20412;-48
2022/06/16 04:46:19;;;;;;;12.38;6.93;;;;;;;14.33;83.15;102023.56;5008923;28;20388;-48
2022/06/16 04:48:45;;;;;;;13.70;7.07;;;;;;;14.35;82.52;102029.63;5001145;28;20124;-47
2022/06/16 04:51:13;;;;;;;12.60;6.88;;;;;;;14.31;82.82;102031.78;5010156;28;20021;-49
2022/06/16 04:53:38;;;;;;;12.57;6.95;;;;;;;14.37;84.00;102033.00;5005579;28;20503;-48
2022/06/16 04:56:05;;;;;;;10.40;6.60;;;;;;;14.32;84.33;102043.38;5014478;28;21124;-51
2022/06/16 04:58:31;;;;;;;9.88;6.43;;;;;;;14.32;84.38;102044.25;5007744;28;20025;-46
2022/06/16 05:00:57;;;;;;;11.70;7.10;;;;;;;14.32;84.08;102046.06;5015450;28;20021;-49
2022/06/16 05:03:27;;;;;;;11.73;7.10;;;;;;;14.39;84.45;102054.34;5011874;28;20021;-49
2022/06/16 05:05:54;;;;;;;12.80;6.53;;;;;;;14.45;83.70;102056.41;5015034;28;20025;-47
2022/06/16 05:08:20;;;;;;;9.18;6.32;;;;;;;14.50;83.34;102051.41;5016700;28;20332;-48
2022/06/16 05:10:47;;;;;;;10.20;6.55;;;;;;;14.52;82.58;102044.88;5010144;28;20035;-50
2022/06/16 05:13:14;;;;;;;11.35;6.55;;;;;;;14.57;83.28;102052.47;5016487;28;20036;-48
2022/06/16 05:15:39;;;;;;;10.60;6.13;;;;;;;14.60;81.50;102065.63;5014755;28;20025;-49
2022/06/16 05:18:06;;;;;;;11.13;6.00;;;;;;;14.65;80.72;102071.38;5028139;28;20765;-50
2022/06/16 05:20:31;;;;;;;15.65;6.45;;;;;;;14.70;81.55;102069.06;5012552;28;20487;-46
2022/06/16 05:22:56;;;;;;;12.90;6.80;;;;;;;14.76;81.55;102074.81;5012228;28;20093;-48
2022/06/16 05:25:22;;;;;;;9.60;6.13;;;;;;;14.85;81.08;102081.91;5010725;28;20021;-50
2022/06/16 05:27:48;;;;;;;11.13;6.22;;;;;;;14.86;79.69;102081.75;5005841;28;20568;-48
2022/06/16 05:30:14;;;;;;;10.02;5.72;;;;;;;14.99;80.02;102086.72;5003787;28;20550;-47
2022/06/16 05:32:39;;;;;;;10.93;6.35;;;;;;;15.04;79.30;102091.63;5001651;28;20029;-49
2022/06/16 05:35:05;;;;;;;13.38;5.78;;;;;;;15.14;79.27;102086.09;5008855;28;20033;-48
2022/06/16 05:37:31;;;;;;;12.43;6.15;;;;;;;15.24;79.30;102090.38;5020698;28;20032;-48
2022/06/16 05:39:56;;;;;;;10.00;5.90;;;;;;;15.33;77.63;102095.78;5005600;28;20083;-49
2022/06/16 05:42:22;;;;;;;13.07;4.97;;;;;;;15.36;76.21;102093.63;5012561;28;20037;-49
2022/06/16 05:44:47;;;;;;;7.75;4.57;;;;;;;15.51;74.88;102095.69;5003285;28;20176;-51
2022/06/16 05:47:12;;;;;;;11.48;4.43;;;;;;;15.54;72.02;102096.19;5007837;28;20125;-49
2022/06/16 05:49:42;;;;;;;10.95;5.03;;;;;;;15.60;72.96;102098.25;5005143;28;20029;-50
2022/06/16 05:52:10;;;;;;;8.45;4.25;;;;;;;15.70;72.03;102100.81;5005138;28;20094;-47
2022/06/16 05:54:35;;;;;;;7.18;4.00;;;;;;;15.77;70.22;102091.09;5007142;28;20168;-50
2022/06/16 05:57:01;;;;;;;7.82;4.07;;;;;;;15.87;70.25;102098.16;5005186;28;20555;-47
2022/06/16 05:59:26;;;;;;;6.43;3.83;;;;;;;15.94;69.29;102105.44;5011379;28;20060;-49
2022/06/16 06:01:51;;;;;;;5.68;3.72;;;;;;;15.99;65.11;102107.63;5004704;28;20037;-47
2022/06/16 06:04:17;;;;;;;6.75;3.45;;;;;;;16.07;65.34;102113.00;5011805;28;20392;-48
2022/06/16 06:06:42;;;;;;;7.28;3.58;;;;;;;16.20;65.91;102109.84;5013105;28;20025;-48
2022/06/16 06:16:25;;;;;;;5.78;3.17;;;;;;;16.32;65.12;102116.56;5028445;28;20449;-47
2022/06/16 06:17:29;;;;;;;6.85;3.00;;;;;;;16.69;62.42;102117.91;5015502;28;20115;-47
2022/06/16 06:19:54;;;;;;;6.40;3.38;;;;;;;16.77;60.88;102115.22;5011314;28;20266;-47
2022/06/16 06:22:24;;;;;;;6.53;3.33;;;;;;;16.86;58.61;102116.06;5014579;28;20022;-48
2022/06/16 06:24:54;;;;;;;7.37;2.97;;;;;;;16.93;60.67;102108.97;5015021;28;20155;-47
2022/06/16 06:27:31;;;;;;;5.78;2.97;;;;;;;17.03;60.12;102118.75;5021465;28;20120;-46
2022/06/16 06:29:56;;;;;;;6.97;3.10;;;;;;;17.14;58.87;102121.06;5004966;28;20424;-47
2022/06/16 06:32:23;;;;;;;8.57;3.25;;;;;;;17.27;59.28;102131.31;5013677;28;20088;-47
2022/06/16 06:34:49;;;;;;;6.30;2.92;;;;;;;17.34;58.16;102130.47;5020510;28;20472;-46
2022/06/16 06:37:16;;;;;;;6.60;2.80;;;;;;;17.48;58.00;102126.19;5008092;28;20214;-47
2022/06/16 06:39:42;;;;;;;5.22;2.60;;;;;;;17.52;57.60;102134.78;5015561;28;20409;-47
2022/06/16 06:42:07;;;;;;;6.97;2.90;;;;;;;17.58;55.92;102128.66;5004155;28;20030;-49
2022/06/16 06:44:33;;;;;;;6.47;2.40;;;;;;;17.73;56.01;102128.75;5006802;28;20373;-48
2022/06/16 06:46:59;;;;;;;10.20;3.20;;;;;;;17.88;55.62;102134.28;5012256;28;20684;-46
2022/06/16 06:49:25;;;;;;;4.43;2.70;;;;;;;18.03;54.33;102127.09;5010941;28;20100;-50
2022/06/16 06:51:50;;;;;;;8.73;3.17;;;;;;;18.06;54.47;102137.53;5015363;28;20111;-48
2022/06/16 06:54:17;;;;;;;9.68;2.88;;;;;;;18.19;54.79;102130.69;5013268;28;20009;-50
2022/06/16 06:56:43;;;;;;;5.65;2.78;;;;;;;18.27;54.14;102134.16;5018058;28;20531;-51
2022/06/16 06:59:18;;;;;;;4.93;3.00;;;;;;;18.49;54.71;102147.88;5016293;28;20140;-47
2022/06/16 07:01:48;;;;;;;8.05;2.78;;;;;;;18.61;53.71;102141.00;5019488;28;20467;-51
2022/06/16 07:04:13;;;;;;;6.13;2.58;;;;;;;18.75;53.91;102147.47;5018997;28;20032;-48
2022/06/16 07:06:39;;;;;;;8.30;2.67;;;;;;;18.77;53.52;102150.00;5012126;28;20026;-48
2022/06/16 07:09:04;;;;;;;5.68;2.70;;;;;;;18.87;52.35;102156.00;5002292;28;20081;-49
2022/06/16 07:11:30;;;;;;;6.43;2.92;;;;;;;18.94;51.54;102159.69;5010468;28;20512;-48
2022/06/16 07:13:55;;;;;;;5.47;2.33;;;;;;;19.04;50.81;102163.97;5013554;28;20037;-47
2022/06/16 07:16:21;;;;;;;5.65;2.35;;;;;;;19.05;51.70;102157.56;5012372;28;20037;-46
2022/06/16 07:18:47;;;;;;;6.28;2.80;;;;;;;19.22;52.58;102158.22;5018464;28;20475;-48
2022/06/16 07:21:14;;;;;;;7.60;2.92;;;;;;;19.26;52.45;102163.06;5013131;28;20045;-46
2022/06/16 07:23:40;;;;;;;7.53;2.70;;;;;;;19.39;53.46;102170.53;5018981;28;20063;-46
2022/06/16 07:26:05;;;;;;;6.60;2.67;;;;;;;19.31;49.56;102174.16;5011363;28;20464;-46
2022/06/16 07:28:30;;;;;;;6.57;2.90;;;;;;;19.53;50.96;102180.50;5016951;28;20157;-45
2022/06/16 07:30:56;;;;;;;7.03;2.95;;;;;;;19.64;49.76;102173.78;5008056;28;20069;-46
2022/06/16 07:33:23;;;;;;;6.15;2.65;;;;;;;19.67;49.97;102188.81;5015422;28;20373;-46
2022/06/16 07:35:52;;;;;;;7.82;2.53;;;;;;;19.74;50.03;102196.06;5009662;28;20310;-49
2022/06/16 07:38:17;;;;;;;9.02;2.60;;;;;;;19.89;50.19;102192.47;5005294;28;20038;-48
2022/06/16 07:40:43;;;;;;;8.10;2.72;;;;;;;19.94;50.19;102190.03;5015734;28;20132;-46
2022/06/16 07:43:08;;;;;;;5.07;2.80;;;;;;;20.04;49.05;102204.13;5012024;28;20061;-47
2022/06/16 07:45:35;;;;;;;6.35;2.50;;;;;;;20.15;49.88;102200.09;5008906;28;20037;-47
2022/06/16 07:48:02;;;;;;;5.47;2.30;;;;;;;20.44;50.89;102206.44;5004573;28;20574;-48
2022/06/16 07:50:29;;;;;;;7.38;2.10;;;;;;;20.35;47.83;102211.16;5012512;28;20048;-49
2022/06/16 07:52:54;;;;;;;6.20;2.05;;;;;;;20.26;47.21;102201.44;5025877;28;20531;-50
2022/06/16 07:55:20;;;;;;;5.00;2.30;;;;;;;20.40;49.48;102211.41;5023069;28;20281;-47
2022/06/16 07:57:48;;;;;;;6.20;2.30;;;;;;;20.46;46.05;102216.03;5033785;28;20029;-49
2022/06/16 08:00:17;;;;;;;5.32;2.20;;;;;;;20.42;45.26;102213.94;5035141;28;20397;-50
2022/06/16 08:02:43;;;;;;;5.30;1.95;;;;;;;20.46;46.36;102215.22;5033553;28;20567;-50
2022/06/16 08:05:10;;;;;;;5.72;1.90;;;;;;;20.61;48.48;102228.72;5018534;28;20463;-47
2022/06/16 08:07:36;;;;;;;5.40;2.30;;;;;;;20.58;45.31;102224.53;5028316;28;20030;-50
2022/06/16 08:10:05;;;;;;;6.93;1.95;;;;;;;20.51;45.47;102220.91;5031461;28;20117;-47
2022/06/16 08:12:30;;;;;;;3.30;2.17;;;;;;;20.72;47.85;102222.78;5033540;28;20053;-49
2022/06/16 08:14:55;;;;;;;5.53;1.95;;;;;;;20.83;46.98;102230.41;5027738;28;20061;-48
2022/06/16 08:17:27;;;;;;;5.60;2.17;;;;;;;20.91;44.86;102234.03;5020956;28;20037;-49
2022/06/16 08:19:54;;;;;;;6.47;2.10;;;;;;;20.75;44.94;102227.00;5033508;28;20055;-50
2022/06/16 08:22:19;;;;;;;6.53;2.15;;;;;;;20.91;46.97;102224.03;5026413;28;20124;-50
2022/06/16 08:24:47;;;;;;;5.45;2.20;;;;;;;20.95;47.56;102229.91;5029858;28;20120;-47
2022/06/16 08:27:13;;;;;;;3.70;1.90;;;;;;;21.07;48.48;102224.78;5024736;28;20036;-51
2022/06/16 08:29:41;;;;;;;5.22;1.90;;;;;;;21.20;46.80;102241.19;5030047;28;20045;-50
2022/06/16 08:32:09;;;;;;;5.45;1.88;;;;;;;21.42;48.47;102236.50;5029446;28;20573;-46
2022/06/16 08:34:34;;;;;;;4.60;2.00;;;;;;;21.52;45.72;102237.03;5034007;28;20444;-51
2022/06/16 08:36:59;;;;;;;6.10;2.08;;;;;;;21.63;45.37;102237.50;5027028;28;20041;-48
2022/06/16 08:39:25;;;;;;;4.63;2.13;;;;;;;21.65;44.70;102227.25;5024985;28;20273;-49
2022/06/16 08:42:08;;;;;;;3.67;2.00;;;;;;;21.67;44.35;102214.28;5017724;28;20088;-50
2022/06/16 08:44:43;;;;;;;6.03;1.85;;;;;;;21.68;45.07;102208.66;5002751;28;20033;-48
2022/06/16 08:47:34;;;;;;;6.78;2.45;;;;;;;21.82;44.34;102201.38;5004727;28;20472;-48
2022/06/16 08:50:24;;;;;;;6.30;2.30;;;;;;;21.87;43.35;102215.22;5024109;28;20440;-48
2022/06/16 08:53:06;;;;;;;6.72;2.22;;;;;;;22.10;44.23;102216.78;5019130;28;20029;-51
2022/06/16 08:55:39;;;;;;;10.10;2.42;;;;;;;22.28;44.49;102218.94;5020973;28;20184;-48
2022/06/16 08:58:04;;;;;;;11.55;2.55;;;;;;;22.04;42.19;102225.75;5027384;28;20556;-50
2022/06/16 09:00:31;;;;;;;5.87;2.30;;;;;;;21.96;43.41;102232.19;5028219;28;20025;-49
2022/06/16 09:03:36;;;;;;;7.53;2.50;;;;;;;22.14;45.49;102240.63;5031032;28;20031;-46
2022/06/16 09:06:31;;;;;;;5.53;2.30;;;;;;;22.41;45.31;102245.38;5016292;28;20025;-47
2022/06/16 09:09:11;;;;;;;4.10;1.85;;;;;;;22.61;45.16;102235.34;5033113;28;20490;-52
2022/06/16 09:11:49;;;;;;;4.45;2.20;;;;;;;22.94;46.70;102247.31;5024838;28;20131;-49
2022/06/16 09:15:10;;;;;;;11.98;2.50;;;;;;;23.09;44.71;102256.97;5029169;28;20121;-50
2022/06/16 09:18:01;;;;;;;5.78;2.28;;;;;;;22.82;42.59;102256.09;5026989;28;20102;-47
2022/06/16 09:20:45;;;;;;;6.78;2.78;;;;;;;22.28;41.92;102259.75;5028999;28;20684;-50
2022/06/16 09:23:13;;;;;;;6.60;2.25;;;;;;;22.11;42.79;102257.38;5030772;28;20039;-50
2022/06/16 09:25:57;;;;;;;6.20;2.40;;;;;;;22.46;43.69;102259.19;5033917;28;20106;-47
2022/06/16 09:28:35;;;;;;;9.48;2.88;;;;;;;22.57;43.34;102263.19;5029561;28;20029;-48
2022/06/16 09:31:05;;;;;;;8.70;3.95;;;;;;;22.90;43.76;102263.25;5030299;28;20045;-51
2022/06/16 09:33:34;;;;;;;;;;;;;;;23.12;42.86;102268.53;5026545;28;20017;-51
2022/06/16 09:36:10;;;;;;;6.90;2.58;;;;;;;22.92;43.98;102266.59;5018789;28;19913;-47
2022/06/16 09:38:41;;;;;;;6.32;2.58;;;;;;;22.87;42.17;102256.31;5030304;28;20040;-49
2022/06/16 09:44:00;;;;;;;7.78;2.50;;;;;;;23.09;44.03;102254.25;5005714;28;20183;-51
2022/06/16 09:46:32;;;;;;;6.68;2.60;;;;;;;22.85;41.20;102263.03;5003979;28;20017;-48
2022/06/16 09:49:04;;;;;;;5.05;2.67;;;;;;;22.84;44.14;102258.63;5009437;28;20061;-51
2022/06/16 09:51:39;;;;;;;13.80;2.35;;;;;;;22.92;45.28;102261.97;5008787;28;20041;-49
2022/06/16 09:54:18;;;;;;;5.78;2.20;;;;;;;23.22;43.83;102264.31;5015579;28;20038;-50
2022/06/16 09:56:48;;;;;;;3.90;2.00;;;;;;;23.56;44.01;102261.53;5006137;28;20365;-50
2022/06/16 09:59:28;;;;;;;7.55;2.65;;;;;;;23.58;40.84;102257.53;5011802;28;20118;-51
2022/06/16 10:02:18;;;;;;;8.27;2.33;;;;;;;23.71;41.31;102272.19;5008392;28;20037;-52
2022/06/16 10:04:44;;;;;;;6.68;2.35;;;;;;;23.75;43.01;102266.09;4998667;28;20110;-49
2022/06/16 10:07:32;;;;;;;6.60;2.25;;;;;;;23.88;42.57;102267.13;5006942;28;20041;-51
2022/06/16 10:10:34;;;;;;;8.30;2.38;;;;;;;24.06;42.50;102272.72;5003977;28;20034;-50
2022/06/16 10:13:12;;;;;;;6.88;2.38;;;;;;;24.23;42.16;102280.41;5004248;28;20367;-52
2022/06/16 10:15:59;;;;;;;5.93;2.30;;;;;;;24.20;41.32;102268.03;5004583;28;20540;-52
2022/06/16 10:18:25;;;;;;;4.93;2.35;;;;;;;24.00;38.03;102260.78;5010412;28;20112;-48
2022/06/16 10:20:50;;;;;;;6.57;2.50;;;;;;;23.93;39.54;102249.06;5009233;28;20164;-50
2022/06/16 10:23:21;;;;;;;4.18;1.90;;;;;;;24.10;41.70;102260.31;5012267;28;20415;-51
2022/06/16 10:25:50;;;;;;;;;;;;;;;24.36;39.47;102247.59;5016826;28;20017;-51
2022/06/16 10:28:28;;;;;;;5.53;2.63;;;;;;;24.05;38.02;102257.41;5016117;28;19920;-50
2022/06/16 10:30:59;;;;;;;5.53;2.20;;;;;;;24.07;39.84;102257.19;5004432;28;20387;-52
2022/06/16 10:33:28;;;;;;;5.32;2.42;;;;;;;24.16;40.55;102253.97;5022301;28;20138;-51
2022/06/16 10:36:07;;;;;;;10.10;2.65;;;;;;;24.33;39.01;102258.94;5023712;28;20111;-52
2022/06/16 10:38:37;;;;;;;7.70;2.20;;;;;;;24.60;40.02;102258.81;5026756;28;20144;-52
2022/06/16 10:41:06;;;;;;;8.03;2.30;;;;;;;24.89;40.71;102266.34;5028646;28;20100;-50
2022/06/16 10:43:38;;;;;;;6.07;2.28;;;;;;;25.26;38.77;102274.69;5025871;28;20021;-52
2022/06/16 10:46:20;;;;;;;12.75;2.50;;;;;;;25.60;39.74;102283.41;5036047;28;20535;-52
2022/06/16 10:48:50;;;;;;;3.90;2.47;;;;;;;25.58;35.24;102277.31;5028016;28;20017;-48
2022/06/16 10:51:21;;;;;;;8.63;2.65;;;;;;;25.61;38.51;102287.81;5032037;28;20756;-52
2022/06/16 10:54:20;;;;;;;5.90;2.10;;;;;;;25.76;39.74;102281.94;5024370;28;20522;-55
2022/06/16 10:56:46;;;;;;;7.93;2.40;;;;;;;25.68;38.78;102283.09;5019511;28;20018;-52
2022/06/16 10:59:14;;;;;;;5.57;2.20;;;;;;;26.00;41.31;102287.59;5009834;28;20040;-52
2022/06/16 11:01:48;;;;;;;6.70;2.22;;;;;;;26.00;39.06;102287.59;5013415;28;20288;-50
2022/06/16 11:04:19;;;;;;;5.78;2.30;;;;;;;25.77;38.36;102280.06;5010950;28;20040;-51
2022/06/16 11:06:49;;;;;;;5.03;2.17;;;;;;;25.57;37.16;102275.63;5009823;28;20448;-52
2022/06/16 11:09:21;;;;;;;4.32;2.15;;;;;;;25.76;38.08;102270.19;5005903;28;20692;-55
2022/06/16 11:11:57;;;;;;;5.53;2.15;;;;;;;25.69;38.03;102278.47;5011362;28;20048;-52
2022/06/16 11:14:35;;;;;;;6.85;2.25;;;;;;;25.61;37.15;102279.63;5012308;28;20079;-50
2022/06/16 11:17:22;;;;;;;7.47;2.10;;;;;;;25.87;39.23;102269.44;5014289;28;20033;-51
2022/06/16 11:19:52;;;;;;;6.28;1.80;;;;;;;25.66;36.91;102274.28;5010362;28;20022;-47
2022/06/16 11:22:26;;;;;;;5.97;2.00;;;;;;;25.91;39.79;102267.06;5012786;28;20078;-52
2022/06/16 11:24:55;;;;;;;5.68;1.88;;;;;;;26.04;36.83;102258.72;5013703;28;20037;-52
2022/06/16 11:27:20;;;;;;;4.07;2.10;;;;;;;26.18;36.38;102260.19;5017224;28;20026;-52
2022/06/16 11:29:46;;;;;;;6.15;2.40;;;;;;;26.10;34.52;102263.25;5016544;28;20135;-51
2022/06/16 11:32:24;;;;;;;8.30;2.17;;;;;;;25.95;36.62;102265.56;5032029;28;20029;-51
2022/06/16 11:34:49;;;;;;;4.43;1.90;;;;;;;25.97;36.86;102257.97;5022590;28;20041;-52
2022/06/16 11:37:48;;;;;;;5.50;1.90;;;;;;;26.33;36.89;102258.97;5020555;28;20051;-51
2022/06/16 11:40:35;;;;;;;5.55;2.08;;;;;;;26.42;36.28;102255.63;5005739;28;20048;-52
2022/06/16 11:43:31;;;;;;;8.02;2.22;;;;;;;26.45;35.70;102248.03;5018755;28;20029;-53
2022/06/16 11:46:11;;;;;;;5.13;2.17;;;;;;;26.53;36.59;102248.53;5017131;28;20028;-52
2022/06/16 11:48:36;;;;;;;4.57;2.00;;;;;;;26.67;35.27;102245.63;5010787;28;20038;-51
2022/06/16 11:51:24;;;;;;;13.30;2.67;;;;;;;26.65;35.21;102253.22;5018072;28;20033;-53
2022/06/16 11:53:56;;;;;;;6.22;1.90;;;;;;;26.84;37.13;102252.09;5017793;28;20556;-50
2022/06/16 11:56:48;;;;;;;8.68;1.88;;;;;;;26.84;33.88;102248.50;5013855;28;20030;-52